This is the latest recevied weather packets stored in our database for station/object NQ9F. If no packets are shown the sender has not sent any weather packets the latest 10 day(s).
| Time | Temp. | Humidity | Pressure | Rain* | Wind** | Luminosity | Snow |
|---|---|---|---|---|---|---|---|
| 1777713201 | 10.56° C | 92% | 1019.6 hPa | 0 mm | - | 0 W/m² | - |
| 1777712899 | 10.56° C | 92% | 1019.6 hPa | 0 mm | - | 0 W/m² | - |
| 1777712595 | 10.56° C | 92% | 1019.5 hPa | 0 mm | - | 0 W/m² | - |
| 1777712292 | 10° C | 94% | 1019.5 hPa | 0 mm | - | 0 W/m² | - |
| 1777711988 | 10° C | 94% | 1019.6 hPa | 0 mm | - | 0 W/m² | - |
| 1777711686 | 10.56° C | 93% | 1019.6 hPa | 0 mm | - | 0 W/m² | - |
| 1777711381 | 10.56° C | 94% | 1019.6 hPa | 0 mm | - | 0 W/m² | - |
| 1777711077 | 10.56° C | 94% | 1019.6 hPa | 0 mm | - | 0 W/m² | - |
| 1777710774 | 10.56° C | 95% | 1019.6 hPa | 0 mm | - | 0 W/m² | - |
| 1777710472 | 10° C | 96% | 1019.5 hPa | 0 mm | - | 0 W/m² | - |
| 1777710168 | 10° C | 96% | 1019.7 hPa | 0 mm | - | 0 W/m² | - |
| 1777709865 | 10.56° C | 95% | 1019.6 hPa | 0 mm | - | 0 W/m² | - |
| 1777709563 | 10.56° C | 92% | 1019.8 hPa | 0 mm | - | 0 W/m² | - |
| 1777709260 | 11.11° C | 90% | 1019.5 hPa | 0 mm | - | 0 W/m² | - |
| 1777708957 | 11.11° C | 89% | 1019.6 hPa | 0 mm | - | 0 W/m² | - |
| 1777708655 | 11.67° C | 87% | 1019.8 hPa | 0 mm | - | 0 W/m² | - |
| 1777708353 | 11.67° C | 86% | 1019.7 hPa | 0 mm | - | 0 W/m² | - |
| 1777708050 | 11.67° C | 85% | 1019.8 hPa | 0 mm | - | 0 W/m² | - |
| 1777707748 | 12.22° C | 84% | 1019.6 hPa | 0 mm | - | 0 W/m² | - |
| 1777707443 | 11.67° C | 85% | 1019.7 hPa | 0 mm | - | 0 W/m² | - |
| 1777707139 | 11.67° C | 85% | 1019.7 hPa | 0 mm | - | 0 W/m² | - |
| 1777706837 | 12.22° C | 85% | 1019.9 hPa | 0 mm | - | 0 W/m² | - |
| 1777706535 | 12.22° C | 85% | 1019.8 hPa | 0 mm | - | 0 W/m² | - |
| 1777706233 | 12.22° C | 86% | 1019.6 hPa | 0 mm | - | 0 W/m² | - |
| 1777705930 | 12.22° C | 87% | 1019.9 hPa | 0 mm | - | 0 W/m² | - |
* Rain latest hour (hover to see other rain measurements)
** Current wind speed in m/s (hover to see current wind gust speed)